Buoy 53524

sailwx.info

Track history (hours):
 
Tides and Currents Weather Stations Pressure Air Temp Water Temp Dewpoint Dewpoint Depression Visibility Wind Speed Wind Dir Waves Ship Positions

Drifting buoy 53524

Last reported at 2014-Nov-24 01:00 UTC. Time now 2014-Nov-24 02:58 UTC.
Position S 11°41' E 085°03'.

Barometer 1010.1 mb
Water temperature 28.4 ° C

Date/timePositionNaut miles runAvg speedWind from/ knotsBaromVisibWave heightAir tempDewpointWater temp
2014-Nov-24 01:00S 11°41' E 085°03'1 0.6 1010.1 28.4
2014-Nov-24 00:00S 11°41' E 085°03'1 1.1 1009.4 28.4
2014-Nov-23 23:00S 11°40' E 085°02'6 1.4 1008.7 28.4
2014-Nov-23 19:00S 11°39' E 084°56'1 0.3 1010.4 28.4
2014-Nov-23 16:00S 11°38' E 084°56'1 0.8 1012.0 28.4
2014-Nov-23 15:00S 11°38' E 084°55'4 1.1 1011.4 28.4
2014-Nov-23 11:00S 11°36' E 084°51'1 1.0 1008.7 28.5
2014-Nov-23 10:00S 11°35' E 084°51'2 1.2 1008.6 28.5
2014-Nov-23 08:00S 11°34' E 084°49'7 6.7 1009.2 28.5
2014-Nov-23 07:00S 11°29' E 084°44'1 0.3 1009.9 28.4
2014-Nov-23 03:00S 11°28' E 084°44'3 1.1 1011.6 28.4
2014-Nov-23 00:00S 11°25' E 084°43'3 1.5 1010.2 28.3
2014-Nov-22 22:00S 11°22' E 084°41'3 3.0 1009.1 28.4
2014-Nov-22 21:00S 11°20' E 084°39'5 4.9 1009.0 28.3
2014-Nov-22 20:00S 11°15' E 084°38'0 0.0 1009.5 28.3
2014-Nov-22 16:00S 11°15' E 084°38'1 1.3 1011.4 28.3
2014-Nov-22 15:00S 11°14' E 084°37'5 4.8 1010.7 28.3
2014-Nov-22 14:00S 11°09' E 084°37'0 0.0 1009.9 28.3
2014-Nov-22 12:00S 11°09' E 084°37'2 0.9 1008.8 28.3
2014-Nov-22 10:00S 11°07' E 084°37'0 0.0 1007.9 28.3
2014-Nov-22 09:00S 11°07' E 084°37'2 1.8 1008.2 28.3
2014-Nov-22 08:00S 11°05' E 084°37'2 2.4 1009.1 28.3
2014-Nov-22 07:00S 11°03' E 084°37'2 2.4 1009.3 28.3
2014-Nov-22 06:00S 11°05' E 084°37'5 1.8 1009.4 28.3
2014-Nov-22 03:00S 11°00' E 084°38'1 0.3 1009.6 28.3
2014-Nov-22 00:00S 10°59' E 084°37'1 0.4 1007.5 28.2
2014-Nov-21 22:00S 10°59' E 084°37'0 0.0 1007.0 28.2
2014-Nov-21 21:00S 10°59' E 084°37'1 1.3 1007.0 28.3
2014-Nov-21 20:00S 10°58' E 084°35'0 0.0 1007.9 28.3
2014-Nov-21 19:00S 10°58' E 084°35'2 2.5 1008.6 28.3
2014-Nov-21 18:00S 10°56' E 084°35'4 0.6 1009.6 28.3
2014-Nov-21 12:00S 10°52' E 084°35'1 1.3 1009.2 28.3
2014-Nov-21 11:00S 10°51' E 084°34'0 0.0 1008.8 28.3
2014-Nov-21 09:00S 10°51' E 084°34'1 0.7 1009.5 28.3
2014-Nov-21 07:00S 10°50' E 084°34'0 0.1 1010.2 28.4
2014-Nov-21 06:00S 10°50' E 084°34'4 2.0 1010.8 28.4
2014-Nov-21 04:00S 10°46' E 084°32'2 0.6 1011.7 28.3
2014-Nov-21 01:00S 10°45' E 084°33'0 0.0 1010.3 28.3
2014-Nov-21 00:00S 10°45' E 084°33'0 0.0 1010.0 28.3
2014-Nov-20 23:00S 10°45' E 084°33'1 0.6 1009.5 28.3
2014-Nov-20 22:00S 10°44' E 084°33'3 1.5 1009.3 28.3
2014-Nov-20 20:00S 10°42' E 084°31'0 0.0 1009.9 28.3
2014-Nov-20 18:00S 10°42' E 084°31'0 0.0 1011.2 28.3
2014-Nov-20 16:00S 10°42' E 084°31'0 0.1 1012.1 28.3
2014-Nov-20 15:00S 10°42' E 084°31'2 0.6 1011.5 28.3
2014-Nov-20 12:00S 10°40' E 084°31'1 1.3 1009.4 28.3
2014-Nov-20 11:00S 10°39' E 084°31'0 0.0 1008.7 28.4
2014-Nov-20 10:00S 10°39' E 084°31'3 1.0 1008.2 28.4
2014-Nov-20 07:00S 10°37' E 084°29'0 0.0 1009.4 28.4
2014-Nov-20 06:00S 10°37' E 084°29'3 0.4 1010.1 28.4
2014-Nov-20 00:00S 10°34' E 084°28'2 0.8 1010.2 28.3
2014-Nov-19 22:00S 10°33' E 084°27'1 0.5 1009.8 28.3
2014-Nov-19 20:00S 10°32' E 084°26'2 2.2 1010.2 28.3
2014-Nov-19 19:00S 10°30' E 084°25'0 0.0 1010.9 28.3
2014-Nov-19 18:00S 10°30' E 084°25'1 0.4 1011.6 28.3
2014-Nov-19 16:00S 10°29' E 084°26'1 0.8 1012.4 28.3
2014-Nov-19 15:00S 10°29' E 084°26'2 2.2 1011.8 28.4
2014-Nov-19 14:00S 10°27' E 084°25'1 0.6 1011.2 28.4
2014-Nov-19 13:00S 10°26' E 084°25'1 0.6 1010.6 28.4
2014-Nov-19 11:00S 10°25' E 084°26'1 0.6 1009.0 28.5
2014-Nov-19 10:00S 10°25' E 084°26'1 1.2 1008.9 28.5
2014-Nov-19 09:00S 10°24' E 084°26'0 0.2 1008.9 28.5
2014-Nov-19 07:00S 10°24' E 084°25'3 1.0 1010.3 28.4
2014-Nov-19 04:00S 10°21' E 084°26'0 0.3 1011.1 28.3
2014-Nov-19 03:00S 10°21' E 084°26'3 1.1 1011.3 28.3
2014-Nov-19 00:00S 10°18' E 084°27'0 0.0 1010.8 28.3
2014-Nov-18 23:00S 10°18' E 084°27'0 0.1 1010.4 28.3
2014-Nov-18 22:00S 10°18' E 084°27'0 0.1 1009.8 28.3
2014-Nov-18 21:00S 10°18' E 084°27'1 0.6 1009.9 28.3
2014-Nov-18 20:00S 10°17' E 084°27'1 0.1 1010.1 28.3
2014-Nov-18 16:00S 10°17' E 084°27'1 1.3 1012.4 28.3
2014-Nov-18 15:00S 10°16' E 084°28'1 0.1 1012.3 28.4
2014-Nov-18 11:00S 10°16' E 084°28'1 0.8 1009.8 28.4
2014-Nov-18 10:00S 10°15' E 084°29'1 0.6 1009.5 28.4
2014-Nov-18 09:00S 10°15' E 084°28'0 0.0 1009.7 28.4
2014-Nov-18 08:00S 10°15' E 084°28'0 0.0 1010.1 28.5
2014-Nov-18 07:00S 10°15' E 084°28'1 0.2 1010.8 28.4
2014-Nov-18 01:00S 10°15' E 084°27'1 0.3 1010.9 28.3
2014-Nov-17 23:00S 10°14' E 084°27'1 0.6 1009.3 28.3
2014-Nov-17 21:00S 10°14' E 084°26'2 0.8 1008.6 28.3
2014-Nov-17 19:00S 10°13' E 084°25'0 0.0 1009.6 28.4
2014-Nov-17 16:00S 10°13' E 084°25'1 0.8 1011.0 28.4
2014-Nov-17 15:00S 10°13' E 084°24'2 1.9 1010.9 28.4
2014-Nov-17 14:00S 10°11' E 084°23'0 0.0 1010.3 28.4
2014-Nov-17 12:00S 10°11' E 084°23'1 0.4 1008.5 28.5
2014-Nov-17 10:00S 10°10' E 084°23'1 1.2 1007.5 28.6
2014-Nov-17 09:00S 10°09' E 084°23'3 3.0 1007.5 28.6
2014-Nov-17 08:00S 10°07' E 084°21'5 0.6 1007.8 28.6
2014-Nov-16 23:00S 10°01' E 084°20'0 0.0 1008.6 28.4
2014-Nov-16 22:00S 10°01' E 084°20'1 0.4 1008.2 28.4
2014-Nov-16 19:00S 10°00' E 084°20'1 1.4 1009.1 28.4
2014-Nov-16 18:00S 10°01' E 084°21'1 0.7 1009.8 28.4
2014-Nov-16 16:00S 10°00' E 084°20'2 0.6 1010.4 28.4
2014-Nov-16 13:00S 09°58' E 084°21'1 1.3 1008.7 28.4
2014-Nov-16 12:00S 09°57' E 084°22'0 0.0 1007.8 28.5
2014-Nov-16 11:00S 09°57' E 084°22'1 1.2 1007.3 28.5
2014-Nov-16 10:00S 09°56' E 084°22'0 0.0 1007.3 28.5
2014-Nov-16 09:00S 09°56' E 084°22'3 3.0 1007.4 28.5
2014-Nov-16 08:00S 09°55' E 084°25'1 0.2 1008.0 28.5
2014-Nov-16 04:00S 09°55' E 084°24'0 0.1 1010.8 28.4
2014-Nov-16 02:00S 09°55' E 084°24'0 0.1 1010.7 28.4
2014-Nov-16 00:00S 09°55' E 084°24'1 0.2 1009.4 28.4
2014-Nov-15 19:00S 09°55' E 084°25'0 0.3 1009.9 28.4
2014-Nov-15 18:00S 09°54' E 084°25'2 0.8 1010.7 28.4
2014-Nov-15 16:00S 09°55' E 084°27'2 2.4 1011.8 28.4
2014-Nov-15 15:00S 09°54' E 084°25'0 0.0 1011.9 28.5
2014-Nov-15 14:00S 09°54' E 084°25'1 0.6 1011.4 28.5
2014-Nov-15 12:00S 09°54' E 084°26'1 0.1 1010.0 28.5
2014-Nov-15 08:00S 09°54' E 084°25'0 0.2 1009.9 28.5
2014-Nov-15 07:00S 09°54' E 084°25'3 2.8 1010.6 28.4
2014-Nov-15 06:00S 09°52' E 084°23'1 0.2 1011.2 28.4
2014-Nov-14 23:00S 09°52' E 084°22'3 1.7 1010.1 28.5
2014-Nov-14 21:00S 09°50' E 084°19'0 0.0 1009.9 28.5
2014-Nov-14 20:00S 09°50' E 084°19'2 1.9 1010.5 28.5
2014-Nov-14 19:00S 09°48' E 084°19'2 0.4 1011.5 28.5
2014-Nov-14 15:00S 09°47' E 084°19'2 2.1 1012.9 28.5
2014-Nov-14 14:00S 09°45' E 084°18'1 0.7 1012.4 28.6
2014-Nov-14 12:00S 09°46' E 084°17'3 1.5 1011.4 28.6
2014-Nov-14 10:00S 09°43' E 084°17'4 1.2 1010.5 28.6
2014-Nov-14 07:00S 09°39' E 084°17'0 0.0 1011.3 28.6
2014-Nov-14 04:00S 09°39' E 084°17'   1012.6 28.5
Track history (hours):
 
Tides and Currents Weather Stations Pressure Air Temp Water Temp Dewpoint Dewpoint Depression Visibility Wind Speed Wind Dir Waves Ship Positions

Drifting buoy 53524

Last reported at 2014-Nov-24 01:00 UTC. Time now 2014-Nov-24 02:58 UTC.
Position S 11°41' E 085°03'.

Barometer 1010.1 mb
Water temperature 28.4 ° C

Date/timePositionNaut miles runAvg speedWind from/ knotsBaromVisibWave heightAir tempDewpointWater temp
2014-Nov-24 01:00S 11°41' E 085°03'1 0.6 1010.1 28.4
2014-Nov-24 00:00S 11°41' E 085°03'1 1.1 1009.4 28.4
2014-Nov-23 23:00S 11°40' E 085°02'6 1.4 1008.7 28.4
2014-Nov-23 19:00S 11°39' E 084°56'1 0.3 1010.4 28.4
2014-Nov-23 16:00S 11°38' E 084°56'1 0.8 1012.0 28.4
2014-Nov-23 15:00S 11°38' E 084°55'4 1.1 1011.4 28.4
2014-Nov-23 11:00S 11°36' E 084°51'1 1.0 1008.7 28.5
2014-Nov-23 10:00S 11°35' E 084°51'2 1.2 1008.6 28.5
2014-Nov-23 08:00S 11°34' E 084°49'7 6.7 1009.2 28.5
2014-Nov-23 07:00S 11°29' E 084°44'1 0.3 1009.9 28.4
2014-Nov-23 03:00S 11°28' E 084°44'3 1.1 1011.6 28.4
2014-Nov-23 00:00S 11°25' E 084°43'3 1.5 1010.2 28.3
2014-Nov-22 22:00S 11°22' E 084°41'3 3.0 1009.1 28.4
2014-Nov-22 21:00S 11°20' E 084°39'5 4.9 1009.0 28.3
2014-Nov-22 20:00S 11°15' E 084°38'0 0.0 1009.5 28.3
2014-Nov-22 16:00S 11°15' E 084°38'1 1.3 1011.4 28.3
2014-Nov-22 15:00S 11°14' E 084°37'5 4.8 1010.7 28.3
2014-Nov-22 14:00S 11°09' E 084°37'0 0.0 1009.9 28.3
2014-Nov-22 12:00S 11°09' E 084°37'2 0.9 1008.8 28.3
2014-Nov-22 10:00S 11°07' E 084°37'0 0.0 1007.9 28.3
2014-Nov-22 09:00S 11°07' E 084°37'2 1.8 1008.2 28.3
2014-Nov-22 08:00S 11°05' E 084°37'2 2.4 1009.1 28.3
2014-Nov-22 07:00S 11°03' E 084°37'2 2.4 1009.3 28.3
2014-Nov-22 06:00S 11°05' E 084°37'5 1.8 1009.4 28.3
2014-Nov-22 03:00S 11°00' E 084°38'1 0.3 1009.6 28.3
2014-Nov-22 00:00S 10°59' E 084°37'1 0.4 1007.5 28.2
2014-Nov-21 22:00S 10°59' E 084°37'0 0.0 1007.0 28.2
2014-Nov-21 21:00S 10°59' E 084°37'1 1.3 1007.0 28.3
2014-Nov-21 20:00S 10°58' E 084°35'0 0.0 1007.9 28.3
2014-Nov-21 19:00S 10°58' E 084°35'2 2.5 1008.6 28.3
2014-Nov-21 18:00S 10°56' E 084°35'4 0.6 1009.6 28.3
2014-Nov-21 12:00S 10°52' E 084°35'1 1.3 1009.2 28.3
2014-Nov-21 11:00S 10°51' E 084°34'0 0.0 1008.8 28.3
2014-Nov-21 09:00S 10°51' E 084°34'1 0.7 1009.5 28.3
2014-Nov-21 07:00S 10°50' E 084°34'0 0.1 1010.2 28.4
2014-Nov-21 06:00S 10°50' E 084°34'4 2.0 1010.8 28.4
2014-Nov-21 04:00S 10°46' E 084°32'2 0.6 1011.7 28.3
2014-Nov-21 01:00S 10°45' E 084°33'0 0.0 1010.3 28.3
2014-Nov-21 00:00S 10°45' E 084°33'0 0.0 1010.0 28.3
2014-Nov-20 23:00S 10°45' E 084°33'1 0.6 1009.5 28.3
2014-Nov-20 22:00S 10°44' E 084°33'3 1.5 1009.3 28.3
2014-Nov-20 20:00S 10°42' E 084°31'0 0.0 1009.9 28.3
2014-Nov-20 18:00S 10°42' E 084°31'0 0.0 1011.2 28.3
2014-Nov-20 16:00S 10°42' E 084°31'0 0.1 1012.1 28.3
2014-Nov-20 15:00S 10°42' E 084°31'2 0.6 1011.5 28.3
2014-Nov-20 12:00S 10°40' E 084°31'1 1.3 1009.4 28.3
2014-Nov-20 11:00S 10°39' E 084°31'0 0.0 1008.7 28.4
2014-Nov-20 10:00S 10°39' E 084°31'3 1.0 1008.2 28.4
2014-Nov-20 07:00S 10°37' E 084°29'0 0.0 1009.4 28.4
2014-Nov-20 06:00S 10°37' E 084°29'3 0.4 1010.1 28.4
2014-Nov-20 00:00S 10°34' E 084°28'2 0.8 1010.2 28.3
2014-Nov-19 22:00S 10°33' E 084°27'1 0.5 1009.8 28.3
2014-Nov-19 20:00S 10°32' E 084°26'2 2.2 1010.2 28.3
2014-Nov-19 19:00S 10°30' E 084°25'0 0.0 1010.9 28.3
2014-Nov-19 18:00S 10°30' E 084°25'1 0.4 1011.6 28.3
2014-Nov-19 16:00S 10°29' E 084°26'1 0.8 1012.4 28.3
2014-Nov-19 15:00S 10°29' E 084°26'2 2.2 1011.8 28.4
2014-Nov-19 14:00S 10°27' E 084°25'1 0.6 1011.2 28.4
2014-Nov-19 13:00S 10°26' E 084°25'1 0.6 1010.6 28.4
2014-Nov-19 11:00S 10°25' E 084°26'1 0.6 1009.0 28.5
2014-Nov-19 10:00S 10°25' E 084°26'1 1.2 1008.9 28.5
2014-Nov-19 09:00S 10°24' E 084°26'0 0.2 1008.9 28.5
2014-Nov-19 07:00S 10°24' E 084°25'3 1.0 1010.3 28.4
2014-Nov-19 04:00S 10°21' E 084°26'0 0.3 1011.1 28.3
2014-Nov-19 03:00S 10°21' E 084°26'3 1.1 1011.3 28.3
2014-Nov-19 00:00S 10°18' E 084°27'0 0.0 1010.8 28.3
2014-Nov-18 23:00S 10°18' E 084°27'0 0.1 1010.4 28.3
2014-Nov-18 22:00S 10°18' E 084°27'0 0.1 1009.8 28.3
2014-Nov-18 21:00S 10°18' E 084°27'1 0.6 1009.9 28.3
2014-Nov-18 20:00S 10°17' E 084°27'1 0.1 1010.1 28.3
2014-Nov-18 16:00S 10°17' E 084°27'1 1.3 1012.4 28.3
2014-Nov-18 15:00S 10°16' E 084°28'1 0.1 1012.3 28.4
2014-Nov-18 11:00S 10°16' E 084°28'1 0.8 1009.8 28.4
2014-Nov-18 10:00S 10°15' E 084°29'1 0.6 1009.5 28.4
2014-Nov-18 09:00S 10°15' E 084°28'0 0.0 1009.7 28.4
2014-Nov-18 08:00S 10°15' E 084°28'0 0.0 1010.1 28.5
2014-Nov-18 07:00S 10°15' E 084°28'1 0.2 1010.8 28.4
2014-Nov-18 01:00S 10°15' E 084°27'1 0.3 1010.9 28.3
2014-Nov-17 23:00S 10°14' E 084°27'1 0.6 1009.3 28.3
2014-Nov-17 21:00S 10°14' E 084°26'2 0.8 1008.6 28.3
2014-Nov-17 19:00S 10°13' E 084°25'0 0.0 1009.6 28.4
2014-Nov-17 16:00S 10°13' E 084°25'1 0.8 1011.0 28.4
2014-Nov-17 15:00S 10°13' E 084°24'2 1.9 1010.9 28.4
2014-Nov-17 14:00S 10°11' E 084°23'0 0.0 1010.3 28.4
2014-Nov-17 12:00S 10°11' E 084°23'1 0.4 1008.5 28.5
2014-Nov-17 10:00S 10°10' E 084°23'1 1.2 1007.5 28.6
2014-Nov-17 09:00S 10°09' E 084°23'3 3.0 1007.5 28.6
2014-Nov-17 08:00S 10°07' E 084°21'5 0.6 1007.8 28.6
2014-Nov-16 23:00S 10°01' E 084°20'0 0.0 1008.6 28.4
2014-Nov-16 22:00S 10°01' E 084°20'1 0.4 1008.2 28.4
2014-Nov-16 19:00S 10°00' E 084°20'1 1.4 1009.1 28.4
2014-Nov-16 18:00S 10°01' E 084°21'1 0.7 1009.8 28.4
2014-Nov-16 16:00S 10°00' E 084°20'2 0.6 1010.4 28.4
2014-Nov-16 13:00S 09°58' E 084°21'1 1.3 1008.7 28.4
2014-Nov-16 12:00S 09°57' E 084°22'0 0.0 1007.8 28.5
2014-Nov-16 11:00S 09°57' E 084°22'1 1.2 1007.3 28.5
2014-Nov-16 10:00S 09°56' E 084°22'0 0.0 1007.3 28.5
2014-Nov-16 09:00S 09°56' E 084°22'3 3.0 1007.4 28.5
2014-Nov-16 08:00S 09°55' E 084°25'1 0.2 1008.0 28.5
2014-Nov-16 04:00S 09°55' E 084°24'0 0.1 1010.8 28.4
2014-Nov-16 02:00S 09°55' E 084°24'0 0.1 1010.7 28.4
2014-Nov-16 00:00S 09°55' E 084°24'1 0.2 1009.4 28.4
2014-Nov-15 19:00S 09°55' E 084°25'0 0.3 1009.9 28.4
2014-Nov-15 18:00S 09°54' E 084°25'2 0.8 1010.7 28.4
2014-Nov-15 16:00S 09°55' E 084°27'2 2.4 1011.8 28.4
2014-Nov-15 15:00S 09°54' E 084°25'0 0.0 1011.9 28.5
2014-Nov-15 14:00S 09°54' E 084°25'1 0.6 1011.4 28.5
2014-Nov-15 12:00S 09°54' E 084°26'1 0.1 1010.0 28.5
2014-Nov-15 08:00S 09°54' E 084°25'0 0.2 1009.9 28.5
2014-Nov-15 07:00S 09°54' E 084°25'3 2.8 1010.6 28.4
2014-Nov-15 06:00S 09°52' E 084°23'1 0.2 1011.2 28.4
2014-Nov-14 23:00S 09°52' E 084°22'3 1.7 1010.1 28.5
2014-Nov-14 21:00S 09°50' E 084°19'0 0.0 1009.9 28.5
2014-Nov-14 20:00S 09°50' E 084°19'2 1.9 1010.5 28.5
2014-Nov-14 19:00S 09°48' E 084°19'2 0.4 1011.5 28.5
2014-Nov-14 15:00S 09°47' E 084°19'2 2.1 1012.9 28.5
2014-Nov-14 14:00S 09°45' E 084°18'1 0.7 1012.4 28.6
2014-Nov-14 12:00S 09°46' E 084°17'3 1.5 1011.4 28.6
2014-Nov-14 10:00S 09°43' E 084°17'4 1.2 1010.5 28.6
2014-Nov-14 07:00S 09°39' E 084°17'0 0.0 1011.3 28.6
2014-Nov-14 04:00S 09°39' E 084°17'   1012.6 28.5

Dump ship's entire track history